sensor_id;sensor_type;location;lat;lon;timestamp;pressure;altitude;pressure_sealevel;temperature;humidity
43770;BME280;6597;52.218;9.882;2023-04-27T00:02:02;101138.13;;;4.89;86.69
43770;BME280;6597;52.218;9.882;2023-04-27T00:04:29;101138.97;;;4.86;87.43
43770;BME280;6597;52.218;9.882;2023-04-27T00:06:55;101142.47;;;4.85;87.31
43770;BME280;6597;52.218;9.882;2023-04-27T00:09:22;101139.00;;;4.83;87.03
43770;BME280;6597;52.218;9.882;2023-04-27T00:11:49;101139.88;;;4.84;86.92
43770;BME280;6597;52.218;9.882;2023-04-27T00:14:16;101141.59;;;4.85;87.13
43770;BME280;6597;52.218;9.882;2023-04-27T00:16:44;101141.63;;;4.82;87.07
43770;BME280;6597;52.218;9.882;2023-04-27T00:19:10;101133.81;;;4.79;87.45
43770;BME280;6597;52.218;9.882;2023-04-27T00:21:37;101138.16;;;4.80;87.89
43770;BME280;6597;52.218;9.882;2023-04-27T00:24:05;101136.44;;;4.79;88.06
43770;BME280;6597;52.218;9.882;2023-04-27T00:26:32;101135.59;;;4.75;87.67
43770;BME280;6597;52.218;9.882;2023-04-27T00:28:58;101137.31;;;4.75;87.92
43770;BME280;6597;52.218;9.882;2023-04-27T00:31:26;101139.91;;;4.75;87.95
43770;BME280;6597;52.218;9.882;2023-04-27T00:33:55;101140.81;;;4.71;88.19
43770;BME280;6597;52.218;9.882;2023-04-27T00:36:21;101144.28;;;4.71;88.64
43770;BME280;6597;52.218;9.882;2023-04-27T00:38:48;101142.56;;;4.68;88.87
43770;BME280;6597;52.218;9.882;2023-04-27T00:41:14;101140.84;;;4.64;88.68
43770;BME280;6597;52.218;9.882;2023-04-27T00:43:41;101146.91;;;4.66;89.00
43770;BME280;6597;52.218;9.882;2023-04-27T00:46:09;101142.56;;;4.67;89.38
43770;BME280;6597;52.218;9.882;2023-04-27T00:48:39;101137.38;;;4.62;89.98
43770;BME280;6597;52.218;9.882;2023-04-27T00:51:06;101139.13;;;4.62;89.98
43770;BME280;6597;52.218;9.882;2023-04-27T00:53:35;101143.44;;;4.64;90.22
43770;BME280;6597;52.218;9.882;2023-04-27T00:56:01;101146.03;;;4.66;89.93
43770;BME280;6597;52.218;9.882;2023-04-27T00:58:28;101141.69;;;4.66;90.39
43770;BME280;6597;52.218;9.882;2023-04-27T01:00:55;101144.31;;;4.66;90.07
43770;BME280;6597;52.218;9.882;2023-04-27T01:03:22;101149.50;;;4.68;90.30
43770;BME280;6597;52.218;9.882;2023-04-27T01:05:51;101146.03;;;4.66;90.99
43770;BME280;6597;52.218;9.882;2023-04-27T01:08:17;101146.91;;;4.63;91.30
43770;BME280;6597;52.218;9.882;2023-04-27T01:10:44;101146.06;;;4.63;91.96
43770;BME280;6597;52.218;9.882;2023-04-27T01:13:11;101144.34;;;4.62;91.96
43770;BME280;6597;52.218;9.882;2023-04-27T01:15:39;101155.59;;;4.61;91.89
43770;BME280;6597;52.218;9.882;2023-04-27T01:18:08;101158.22;;;4.59;92.61
43770;BME280;6597;52.218;9.882;2023-04-27T01:20:34;101160.81;;;4.59;92.64
43770;BME280;6597;52.218;9.882;2023-04-27T01:23:04;101155.59;;;4.61;92.42
43770;BME280;6597;52.218;9.882;2023-04-27T01:25:32;101161.66;;;4.63;92.85
43770;BME280;6597;52.218;9.882;2023-04-27T01:28:03;101165.13;;;4.63;93.18
43770;BME280;6597;52.218;9.882;2023-04-27T01:30:31;101157.31;;;4.66;93.19
43770;BME280;6597;52.218;9.882;2023-04-27T01:32:57;101168.59;;;4.64;93.61
43770;BME280;6597;52.218;9.882;2023-04-27T01:35:24;101173.78;;;4.62;93.93
43770;BME280;6597;52.218;9.882;2023-04-27T01:37:50;101176.41;;;4.62;94.08
43770;BME280;6597;52.218;9.882;2023-04-27T01:40:17;101169.47;;;4.61;94.10
43770;BME280;6597;52.218;9.882;2023-04-27T01:42:45;101167.75;;;4.59;94.51
43770;BME280;6597;52.218;9.882;2023-04-27T01:45:11;101181.63;;;4.56;95.03
43770;BME280;6597;52.218;9.882;2023-04-27T01:47:38;101186.81;;;4.52;95.41
43770;BME280;6597;52.218;9.882;2023-04-27T01:50:05;101194.63;;;4.50;95.75
43770;BME280;6597;52.218;9.882;2023-04-27T01:52:32;101185.97;;;4.48;95.31
43770;BME280;6597;52.218;9.882;2023-04-27T01:55:01;101200.69;;;4.48;95.72
43770;BME280;6597;52.218;9.882;2023-04-27T01:57:29;101192.03;;;4.44;96.03
43770;BME280;6597;52.218;9.882;2023-04-27T01:59:58;101209.38;;;4.44;96.23
43770;BME280;6597;52.218;9.882;2023-04-27T02:02:24;101201.56;;;4.44;96.16
43770;BME280;6597;52.218;9.882;2023-04-27T02:04:51;101205.94;;;4.40;95.97
43770;BME280;6597;52.218;9.882;2023-04-27T02:07:18;101209.38;;;4.39;95.62
43770;BME280;6597;52.218;9.882;2023-04-27T02:09:44;101211.16;;;4.29;95.99
43770;BME280;6597;52.218;9.882;2023-04-27T02:12:12;101225.88;;;4.32;95.80
43770;BME280;6597;52.218;9.882;2023-04-27T02:14:39;101218.06;;;4.35;95.45
43770;BME280;6597;52.218;9.882;2023-04-27T02:17:07;101231.94;;;4.32;95.24
43770;BME280;6597;52.218;9.882;2023-04-27T02:19:33;101226.75;;;4.34;95.12
43770;BME280;6597;52.218;9.882;2023-04-27T02:22:00;101232.78;;;4.37;94.43
43770;BME280;6597;52.218;9.882;2023-04-27T02:24:27;101235.38;;;4.41;93.94
43770;BME280;6597;52.218;9.882;2023-04-27T02:26:54;101231.91;;;4.40;93.38
43770;BME280;6597;52.218;9.882;2023-04-27T02:29:20;101232.78;;;4.37;93.89
43770;BME280;6597;52.218;9.882;2023-04-27T02:31:47;101231.94;;;4.31;93.02
43770;BME280;6597;52.218;9.882;2023-04-27T02:34:15;101243.19;;;4.34;93.09
43770;BME280;6597;52.218;9.882;2023-04-27T02:36:41;101232.81;;;4.30;92.68
43770;BME280;6597;52.218;9.882;2023-04-27T02:39:08;101238.88;;;4.29;92.64
43770;BME280;6597;52.218;9.882;2023-04-27T02:41:37;101246.69;;;4.27;92.10
43770;BME280;6597;52.218;9.882;2023-04-27T02:44:03;101241.50;;;4.23;92.51
43770;BME280;6597;52.218;9.882;2023-04-27T02:46:30;101238.00;;;4.21;92.40
43770;BME280;6597;52.218;9.882;2023-04-27T02:48:57;101242.34;;;4.17;92.75
43770;BME280;6597;52.218;9.882;2023-04-27T02:51:24;101234.56;;;4.14;92.48
43770;BME280;6597;52.218;9.882;2023-04-27T02:53:52;101239.75;;;4.06;93.15
43770;BME280;6597;52.218;9.882;2023-04-27T02:56:18;101231.97;;;4.00;92.94
43770;BME280;6597;52.218;9.882;2023-04-27T02:58:45;101235.44;;;3.95;92.94
43770;BME280;6597;52.218;9.882;2023-04-27T03:01:13;101232.00;;;3.94;93.42
43770;BME280;6597;52.218;9.882;2023-04-27T03:03:44;101224.16;;;3.88;93.38
43770;BME280;6597;52.218;9.882;2023-04-27T03:06:10;101231.09;;;3.83;93.31
43770;BME280;6597;52.218;9.882;2023-04-27T03:08:38;101234.56;;;3.78;93.59
43770;BME280;6597;52.218;9.882;2023-04-27T03:11:05;101233.72;;;3.74;94.11
43770;BME280;6597;52.218;9.882;2023-04-27T03:13:34;101231.09;;;3.71;94.26
43770;BME280;6597;52.218;9.882;2023-04-27T03:16:07;101234.56;;;3.62;94.56
43770;BME280;6597;52.218;9.882;2023-04-27T03:18:34;101237.16;;;3.59;94.89
43770;BME280;6597;52.218;9.882;2023-04-27T03:21:05;101232.81;;;3.54;94.86
43770;BME280;6597;52.218;9.882;2023-04-27T03:23:32;101229.34;;;3.49;95.38
43770;BME280;6597;52.218;9.882;2023-04-27T03:26:04;101227.63;;;3.44;96.08
43770;BME280;6597;52.218;9.882;2023-04-27T03:28:30;101231.94;;;3.42;96.19
43770;BME280;6597;52.218;9.882;2023-04-27T03:30:57;101231.06;;;3.39;96.04
43770;BME280;6597;52.218;9.882;2023-04-27T03:33:24;101230.19;;;3.37;96.12
43770;BME280;6597;52.218;9.882;2023-04-27T03:35:55;101234.53;;;3.33;95.66
43770;BME280;6597;52.218;9.882;2023-04-27T03:38:22;101235.38;;;3.31;96.10
43770;BME280;6597;52.218;9.882;2023-04-27T03:40:49;101239.69;;;3.26;96.64
43770;BME280;6597;52.218;9.882;2023-04-27T03:43:18;101241.38;;;3.21;96.72
43770;BME280;6597;52.218;9.882;2023-04-27T03:45:45;101243.13;;;3.19;96.77
43770;BME280;6597;52.218;9.882;2023-04-27T03:48:12;101243.97;;;3.16;96.82
43770;BME280;6597;52.218;9.882;2023-04-27T03:50:39;101250.03;;;3.15;96.88
43770;BME280;6597;52.218;9.882;2023-04-27T03:53:06;101260.41;;;3.15;97.19
43770;BME280;6597;52.218;9.882;2023-04-27T03:55:33;101250.03;;;3.13;97.29
43770;BME280;6597;52.218;9.882;2023-04-27T03:58:02;101250.03;;;3.13;96.93
43770;BME280;6597;52.218;9.882;2023-04-27T04:00:32;101257.81;;;3.12;97.21
43770;BME280;6597;52.218;9.882;2023-04-27T04:02:58;101256.06;;;3.08;96.93
43770;BME280;6597;52.218;9.882;2023-04-27T04:05:26;101252.59;;;3.01;97.50
43770;BME280;6597;52.218;9.882;2023-04-27T04:07:53;101255.16;;;2.97;97.67
43770;BME280;6597;52.218;9.882;2023-04-27T04:10:21;101247.34;;;2.91;97.75
43770;BME280;6597;52.218;9.882;2023-04-27T04:12:49;101255.09;;;2.86;97.79
43770;BME280;6597;52.218;9.882;2023-04-27T04:15:16;101255.09;;;2.81;97.84
43770;BME280;6597;52.218;9.882;2023-04-27T04:17:44;101252.47;;;2.77;98.07
43770;BME280;6597;52.218;9.882;2023-04-27T04:20:12;101257.63;;;2.71;98.24
43770;BME280;6597;52.218;9.882;2023-04-27T04:22:39;101261.06;;;2.65;98.16
43770;BME280;6597;52.218;9.882;2023-04-27T04:25:06;101262.78;;;2.60;98.49
43770;BME280;6597;52.218;9.882;2023-04-27T04:27:33;101270.47;;;2.54;98.79
43770;BME280;6597;52.218;9.882;2023-04-27T04:30:00;101279.09;;;2.48;98.93
43770;BME280;6597;52.218;9.882;2023-04-27T04:32:30;101278.19;;;2.42;99.03
43770;BME280;6597;52.218;9.882;2023-04-27T04:34:59;101273.84;;;2.38;99.34
43770;BME280;6597;52.218;9.882;2023-04-27T04:37:27;101272.13;;;2.35;100.00
43770;BME280;6597;52.218;9.882;2023-04-27T04:39:55;101285.91;;;2.31;100.00
43770;BME280;6597;52.218;9.882;2023-04-27T04:42:23;101280.72;;;2.31;100.00
43770;BME280;6597;52.218;9.882;2023-04-27T04:44:50;101274.66;;;2.29;100.00
43770;BME280;6597;52.218;9.882;2023-04-27T04:47:17;101277.25;;;2.29;100.00
43770;BME280;6597;52.218;9.882;2023-04-27T04:49:45;101282.44;;;2.29;100.00
43770;BME280;6597;52.218;9.882;2023-04-27T04:52:13;101278.06;;;2.27;100.00
43770;BME280;6597;52.218;9.882;2023-04-27T04:54:39;101282.44;;;2.29;100.00
43770;BME280;6597;52.218;9.882;2023-04-27T04:57:06;101280.72;;;2.33;100.00
43770;BME280;6597;52.218;9.882;2023-04-27T04:59:33;101292.00;;;2.38;100.00
43770;BME280;6597;52.218;9.882;2023-04-27T05:01:59;101295.47;;;2.43;100.00
43770;BME280;6597;52.218;9.882;2023-04-27T05:04:26;101293.78;;;2.51;100.00
43770;BME280;6597;52.218;9.882;2023-04-27T05:06:52;101296.47;;;2.60;100.00
43770;BME280;6597;52.218;9.882;2023-04-27T05:09:20;101288.72;;;2.66;100.00
43770;BME280;6597;52.218;9.882;2023-04-27T05:11:47;101293.09;;;2.75;100.00
43770;BME280;6597;52.218;9.882;2023-04-27T05:14:13;101290.53;;;2.84;100.00
43770;BME280;6597;52.218;9.882;2023-04-27T05:16:40;101294.06;;;2.95;99.86
43770;BME280;6597;52.218;9.882;2023-04-27T05:19:06;101295.81;;;3.04;99.51
43770;BME280;6597;52.218;9.882;2023-04-27T05:21:33;101292.38;;;3.11;98.82
43770;BME280;6597;52.218;9.882;2023-04-27T05:24:00;101294.13;;;3.18;98.16
43770;BME280;6597;52.218;9.882;2023-04-27T05:26:27;101295.06;;;3.26;97.76
43770;BME280;6597;52.218;9.882;2023-04-27T05:28:54;101292.47;;;3.38;97.16
43770;BME280;6597;52.218;9.882;2023-04-27T05:31:21;101298.56;;;3.50;96.74
43770;BME280;6597;52.218;9.882;2023-04-27T05:33:48;101296.00;;;3.59;96.74
43770;BME280;6597;52.218;9.882;2023-04-27T05:36:14;101307.28;;;3.68;97.05
43770;BME280;6597;52.218;9.882;2023-04-27T05:38:41;101293.44;;;3.79;97.08
43770;BME280;6597;52.218;9.882;2023-04-27T05:41:07;101304.72;;;3.91;97.18
43770;BME280;6597;52.218;9.882;2023-04-27T05:43:35;101299.50;;;4.03;96.32
43770;BME280;6597;52.218;9.882;2023-04-27T05:46:03;101299.50;;;4.13;95.59
43770;BME280;6597;52.218;9.882;2023-04-27T05:48:29;101304.72;;;4.25;94.79
43770;BME280;6597;52.218;9.882;2023-04-27T05:50:59;101299.50;;;4.35;93.84
43770;BME280;6597;52.218;9.882;2023-04-27T05:53:27;101308.16;;;4.50;92.78
43770;BME280;6597;52.218;9.882;2023-04-27T05:55:53;101310.75;;;4.60;91.83
43770;BME280;6597;52.218;9.882;2023-04-27T05:58:21;101315.91;;;4.73;90.51
43770;BME280;6597;52.218;9.882;2023-04-27T06:00:48;101328.00;;;4.84;89.50
43770;BME280;6597;52.218;9.882;2023-04-27T06:03:15;101319.34;;;4.96;87.92
43770;BME280;6597;52.218;9.882;2023-04-27T06:05:41;101319.28;;;5.05;86.48
43770;BME280;6597;52.218;9.882;2023-04-27T06:08:08;101327.91;;;5.15;85.99
43770;BME280;6597;52.218;9.882;2023-04-27T06:10:35;101333.13;;;5.24;85.57
43770;BME280;6597;52.218;9.882;2023-04-27T06:13:02;101326.97;;;5.39;85.07
43770;BME280;6597;52.218;9.882;2023-04-27T06:15:28;101329.53;;;5.45;82.67
43770;BME280;6597;52.218;9.882;2023-04-27T06:17:56;101320.81;;;5.50;82.42
43770;BME280;6597;52.218;9.882;2023-04-27T06:20:23;101319.91;;;5.60;82.48
43770;BME280;6597;52.218;9.882;2023-04-27T06:22:49;101325.06;;;5.71;81.03
43770;BME280;6597;52.218;9.882;2023-04-27T06:25:16;101329.31;;;5.86;81.36
43770;BME280;6597;52.218;9.882;2023-04-27T06:27:42;101324.91;;;5.99;80.33
43770;BME280;6597;52.218;9.882;2023-04-27T06:30:10;101332.66;;;6.08;78.83
43770;BME280;6597;52.218;9.882;2023-04-27T06:32:37;101336.94;;;6.19;77.80
43770;BME280;6597;52.218;9.882;2023-04-27T06:35:05;101327.31;;;6.26;77.49
43770;BME280;6597;52.218;9.882;2023-04-27T06:37:32;101330.63;;;6.43;78.32
43770;BME280;6597;52.218;9.882;2023-04-27T06:39:58;101331.38;;;6.59;76.82
43770;BME280;6597;52.218;9.882;2023-04-27T06:42:25;101331.13;;;6.83;76.43
43770;BME280;6597;52.218;9.882;2023-04-27T06:44:52;101334.38;;;7.02;74.84
43770;BME280;6597;52.218;9.882;2023-04-27T06:47:20;101343.66;;;7.29;74.66
43770;BME280;6597;52.218;9.882;2023-04-27T06:49:46;101339.88;;;7.52;72.33
43770;BME280;6597;52.218;9.882;2023-04-27T06:52:14;101345.63;;;7.76;71.11
43770;BME280;6597;52.218;9.882;2023-04-27T06:54:41;101342.59;;;8.05;69.47
43770;BME280;6597;52.218;9.882;2023-04-27T06:57:07;101342.97;;;8.38;69.41
43770;BME280;6597;52.218;9.882;2023-04-27T06:59:34;101345.84;;;8.73;67.81
43770;BME280;6597;52.218;9.882;2023-04-27T07:02:00;101343.56;;;9.01;63.82
43770;BME280;6597;52.218;9.882;2023-04-27T07:04:27;101337.81;;;9.27;63.20
43770;BME280;6597;52.218;9.882;2023-04-27T07:06:54;101333.84;;;9.51;61.17
43770;BME280;6597;52.218;9.882;2023-04-27T07:09:22;101329.72;;;9.80;59.98
43770;BME280;6597;52.218;9.882;2023-04-27T07:11:49;101333.50;;;10.04;58.66
43770;BME280;6597;52.218;9.882;2023-04-27T07:14:15;101332.19;;;10.24;57.89
43770;BME280;6597;52.218;9.882;2023-04-27T07:16:42;101329.41;;;10.31;56.76
43770;BME280;6597;52.218;9.882;2023-04-27T07:19:09;101331.03;;;10.35;56.39
43770;BME280;6597;52.218;9.882;2023-04-27T07:21:35;101339.06;;;10.28;55.87
43770;BME280;6597;52.218;9.882;2023-04-27T07:24:02;101325.16;;;10.25;55.53
43770;BME280;6597;52.218;9.882;2023-04-27T07:26:30;101327.84;;;10.57;55.67
43770;BME280;6597;52.218;9.882;2023-04-27T07:28:57;101336.34;;;11.00;55.02
43770;BME280;6597;52.218;9.882;2023-04-27T07:31:23;101333.88;;;11.25;51.26
43770;BME280;6597;52.218;9.882;2023-04-27T07:33:50;101333.56;;;11.06;50.83
43770;BME280;6597;52.218;9.882;2023-04-27T07:36:17;101337.47;;;11.22;51.90
43770;BME280;6597;52.218;9.882;2023-04-27T07:38:44;101331.56;;;11.45;49.54
43770;BME280;6597;52.218;9.882;2023-04-27T07:41:10;101337.06;;;11.36;49.30
43770;BME280;6597;52.218;9.882;2023-04-27T07:43:40;101346.97;;;11.57;51.08
43770;BME280;6597;52.218;9.882;2023-04-27T07:46:06;101339.97;;;11.56;49.51
43770;BME280;6597;52.218;9.882;2023-04-27T07:48:33;101346.97;;;11.26;50.58
43770;BME280;6597;52.218;9.882;2023-04-27T07:51:00;101342.28;;;11.37;51.42
43770;BME280;6597;52.218;9.882;2023-04-27T07:53:27;101343.63;;;10.90;50.43
43770;BME280;6597;52.218;9.882;2023-04-27T07:55:53;101349.78;;;10.55;51.67
43770;BME280;6597;52.218;9.882;2023-04-27T07:58:20;101337.72;;;10.48;52.03
43770;BME280;6597;52.218;9.882;2023-04-27T08:00:48;101346.19;;;10.59;51.96
43770;BME280;6597;52.218;9.882;2023-04-27T08:03:15;101342.31;;;11.06;51.59
43770;BME280;6597;52.218;9.882;2023-04-27T08:05:41;101342.66;;;11.54;50.35
43770;BME280;6597;52.218;9.882;2023-04-27T08:08:08;101324.50;;;11.75;49.28
43770;BME280;6597;52.218;9.882;2023-04-27T08:10:34;101329.78;;;11.75;49.33
43770;BME280;6597;52.218;9.882;2023-04-27T08:13:02;101330.91;;;12.22;47.98
43770;BME280;6597;52.218;9.882;2023-04-27T08:15:29;101321.91;;;12.56;48.13
43770;BME280;6597;52.218;9.882;2023-04-27T08:17:57;101329.31;;;12.94;46.57
43770;BME280;6597;52.218;9.882;2023-04-27T08:20:23;101330.81;;;13.26;44.27
43770;BME280;6597;52.218;9.882;2023-04-27T08:22:50;101331.34;;;13.36;42.72
43770;BME280;6597;52.218;9.882;2023-04-27T08:25:16;101331.59;;;12.80;43.41
43770;BME280;6597;52.218;9.882;2023-04-27T08:27:43;101334.72;;;12.13;44.26
43770;BME280;6597;52.218;9.882;2023-04-27T08:30:10;101334.28;;;11.71;44.22
43770;BME280;6597;52.218;9.882;2023-04-27T08:32:36;101327.53;;;11.61;45.37
43770;BME280;6597;52.218;9.882;2023-04-27T08:35:05;101331.66;;;11.70;46.33
43770;BME280;6597;52.218;9.882;2023-04-27T08:37:31;101332.25;;;12.09;45.47
43770;BME280;6597;52.218;9.882;2023-04-27T08:39:58;101321.72;;;12.60;44.63
43770;BME280;6597;52.218;9.882;2023-04-27T08:42:25;101318.84;;;12.93;45.40
43770;BME280;6597;52.218;9.882;2023-04-27T08:44:51;101322.84;;;13.28;43.65
43770;BME280;6597;52.218;9.882;2023-04-27T08:47:18;101316.03;;;13.69;41.86
43770;BME280;6597;52.218;9.882;2023-04-27T08:49:44;101311.84;;;13.85;43.29
43770;BME280;6597;52.218;9.882;2023-04-27T08:52:13;101318.72;;;13.89;41.82
43770;BME280;6597;52.218;9.882;2023-04-27T08:54:40;101325.59;;;13.25;42.21
43770;BME280;6597;52.218;9.882;2023-04-27T08:57:10;101318.59;;;12.75;42.81
43770;BME280;6597;52.218;9.882;2023-04-27T08:59:38;101327.06;;;12.32;43.71
43770;BME280;6597;52.218;9.882;2023-04-27T09:02:05;101324.25;;;11.84;43.23
43770;BME280;6597;52.218;9.882;2023-04-27T09:04:38;101319.31;;;11.44;43.80
43770;BME280;6597;52.218;9.882;2023-04-27T09:07:13;101322.91;;;11.41;43.29
43770;BME280;6597;52.218;9.882;2023-04-27T09:09:41;101326.03;;;12.11;43.57
43770;BME280;6597;52.218;9.882;2023-04-27T09:12:14;101322.31;;;12.70;40.33
43770;BME280;6597;52.218;9.882;2023-04-27T09:14:42;101315.72;;;13.06;40.24
43770;BME280;6597;52.218;9.882;2023-04-27T09:17:08;101315.31;;;13.64;38.87
43770;BME280;6597;52.218;9.882;2023-04-27T09:19:35;101312.59;;;13.67;37.70
43770;BME280;6597;52.218;9.882;2023-04-27T09:22:03;101315.22;;;13.67;39.74
43770;BME280;6597;52.218;9.882;2023-04-27T09:24:31;101312.31;;;13.95;38.61
43770;BME280;6597;52.218;9.882;2023-04-27T09:26:57;101320.97;;;14.42;38.99
43770;BME280;6597;52.218;9.882;2023-04-27T09:29:31;101326.09;;;14.03;38.84
43770;BME280;6597;52.218;9.882;2023-04-27T09:31:57;101324.63;;;13.51;40.45
43770;BME280;6597;52.218;9.882;2023-04-27T09:34:24;101325.28;;;13.09;41.70
43770;BME280;6597;52.218;9.882;2023-04-27T09:36:51;101324.41;;;12.59;41.87
43770;BME280;6597;52.218;9.882;2023-04-27T09:39:18;101312.84;;;12.11;43.00
43770;BME280;6597;52.218;9.882;2023-04-27T09:41:47;101318.91;;;11.87;42.06
43770;BME280;6597;52.218;9.882;2023-04-27T09:44:14;101315.72;;;11.46;43.29
43770;BME280;6597;52.218;9.882;2023-04-27T09:46:41;101323.81;;;11.09;43.00
43770;BME280;6597;52.218;9.882;2023-04-27T09:49:10;101315.91;;;11.11;44.21
43770;BME280;6597;52.218;9.882;2023-04-27T09:51:37;101304.28;;;11.77;44.00
43770;BME280;6597;52.218;9.882;2023-04-27T09:54:04;101297.69;;;12.71;41.19
43770;BME280;6597;52.218;9.882;2023-04-27T09:56:39;101301.13;;;13.45;40.47
43770;BME280;6597;52.218;9.882;2023-04-27T09:59:28;101297.13;;;14.01;38.54
43770;BME280;6597;52.218;9.882;2023-04-27T10:02:02;101303.75;;;14.54;36.65
43770;BME280;6597;52.218;9.882;2023-04-27T10:04:53;101299.03;;;14.40;38.06
43770;BME280;6597;52.218;9.882;2023-04-27T10:07:25;101295.69;;;14.57;38.80
43770;BME280;6597;52.218;9.882;2023-04-27T10:09:52;101296.47;;;14.59;38.14
43770;BME280;6597;52.218;9.882;2023-04-27T10:12:21;101297.59;;;14.94;38.79
43770;BME280;6597;52.218;9.882;2023-04-27T10:14:51;101300.50;;;15.46;36.46
43770;BME280;6597;52.218;9.882;2023-04-27T10:17:18;101297.16;;;15.42;35.67
43770;BME280;6597;52.218;9.882;2023-04-27T10:19:52;101302.38;;;15.81;35.21
43770;BME280;6597;52.218;9.882;2023-04-27T10:22:20;101299.41;;;16.06;35.43
43770;BME280;6597;52.218;9.882;2023-04-27T10:24:48;101297.00;;;16.02;34.02
43770;BME280;6597;52.218;9.882;2023-04-27T10:27:16;101305.91;;;15.63;35.50
43770;BME280;6597;52.218;9.882;2023-04-27T10:29:45;101295.53;;;15.59;34.45
43770;BME280;6597;52.218;9.882;2023-04-27T10:32:19;101295.19;;;15.27;34.70
43770;BME280;6597;52.218;9.882;2023-04-27T10:34:47;101290.84;;;15.26;33.99
43770;BME280;6597;52.218;9.882;2023-04-27T10:37:16;101291.28;;;15.36;33.57
43770;BME280;6597;52.218;9.882;2023-04-27T10:39:44;101291.31;;;15.73;33.16
43770;BME280;6597;52.218;9.882;2023-04-27T10:42:11;101296.44;;;15.95;34.55
43770;BME280;6597;52.218;9.882;2023-04-27T10:44:38;101293.25;;;15.70;34.66
43770;BME280;6597;52.218;9.882;2023-04-27T10:47:16;101289.06;;;15.26;34.30
43770;BME280;6597;52.218;9.882;2023-04-27T10:49:44;101297.69;;;14.30;35.92
43770;BME280;6597;52.218;9.882;2023-04-27T10:52:11;101291.66;;;13.84;36.60
43770;BME280;6597;52.218;9.882;2023-04-27T10:54:37;101291.50;;;14.31;35.10
43770;BME280;6597;52.218;9.882;2023-04-27T10:57:05;101283.34;;;14.78;36.38
43770;BME280;6597;52.218;9.882;2023-04-27T10:59:32;101277.78;;;15.42;34.83
43770;BME280;6597;52.218;9.882;2023-04-27T11:01:59;101284.75;;;15.99;34.40
43770;BME280;6597;52.218;9.882;2023-04-27T11:04:38;101279.38;;;16.53;32.62
43770;BME280;6597;52.218;9.882;2023-04-27T11:07:06;101278.31;;;16.91;31.11
43770;BME280;6597;52.218;9.882;2023-04-27T11:09:34;101272.28;;;16.18;31.66
43770;BME280;6597;52.218;9.882;2023-04-27T11:12:05;101272.84;;;16.42;31.71
43770;BME280;6597;52.218;9.882;2023-04-27T11:14:33;101277.75;;;16.15;31.98
43770;BME280;6597;52.218;9.882;2023-04-27T11:16:59;101279.56;;;15.41;31.82
43770;BME280;6597;52.218;9.882;2023-04-27T11:19:26;101273.94;;;15.30;32.46
43770;BME280;6597;52.218;9.882;2023-04-27T11:22:02;101272.00;;;15.71;32.39
43770;BME280;6597;52.218;9.882;2023-04-27T11:24:29;101271.59;;;16.15;32.16
43770;BME280;6597;52.218;9.882;2023-04-27T11:26:56;101267.56;;;16.42;31.83
43770;BME280;6597;52.218;9.882;2023-04-27T11:29:22;101272.78;;;16.44;30.86
43770;BME280;6597;52.218;9.882;2023-04-27T11:31:50;101281.97;;;15.83;30.93
43770;BME280;6597;52.218;9.882;2023-04-27T11:34:18;101272.41;;;16.34;31.17
43770;BME280;6597;52.218;9.882;2023-04-27T11:36:55;101275.78;;;17.21;30.84
43770;BME280;6597;52.218;9.882;2023-04-27T11:39:25;101263.22;;;17.40;29.79
43770;BME280;6597;52.218;9.882;2023-04-27T11:41:52;101267.63;;;17.73;30.42
43770;BME280;6597;52.218;9.882;2023-04-27T11:44:24;101271.66;;;18.10;29.85
43770;BME280;6597;52.218;9.882;2023-04-27T11:46:51;101267.22;;;18.41;30.05
43770;BME280;6597;52.218;9.882;2023-04-27T11:49:18;101263.78;;;18.39;28.89
43770;BME280;6597;52.218;9.882;2023-04-27T11:51:45;101259.94;;;18.58;30.48
43770;BME280;6597;52.218;9.882;2023-04-27T11:54:12;101268.44;;;18.65;29.02
43770;BME280;6597;52.218;9.882;2023-04-27T11:56:41;101266.94;;;18.45;29.28
43770;BME280;6597;52.218;9.882;2023-04-27T11:59:27;101256.53;;;18.56;29.33
43770;BME280;6597;52.218;9.882;2023-04-27T12:01:53;101249.44;;;19.14;28.72
43770;BME280;6597;52.218;9.882;2023-04-27T12:04:20;101257.69;;;19.38;29.78
43770;BME280;6597;52.218;9.882;2023-04-27T12:06:46;101252.28;;;19.53;27.53
43770;BME280;6597;52.218;9.882;2023-04-27T12:09:13;101252.72;;;19.60;27.41
43770;BME280;6597;52.218;9.882;2023-04-27T12:11:41;101246.94;;;19.39;27.82
43770;BME280;6597;52.218;9.882;2023-04-27T12:14:08;101244.72;;;18.90;28.02
43770;BME280;6597;52.218;9.882;2023-04-27T12:16:35;101248.13;;;18.64;28.82
43770;BME280;6597;52.218;9.882;2023-04-27T12:19:02;101240.47;;;18.58;28.98
43770;BME280;6597;52.218;9.882;2023-04-27T12:21:28;101240.13;;;18.64;30.02
43770;BME280;6597;52.218;9.882;2023-04-27T12:23:56;101245.16;;;19.25;29.24
43770;BME280;6597;52.218;9.882;2023-04-27T12:26:22;101239.56;;;19.71;28.76
43770;BME280;6597;52.218;9.882;2023-04-27T12:28:51;101246.78;;;19.96;30.29
43770;BME280;6597;52.218;9.882;2023-04-27T12:31:17;101248.19;;;20.02;27.06
43770;BME280;6597;52.218;9.882;2023-04-27T12:33:48;101239.34;;;20.01;27.21
43770;BME280;6597;52.218;9.882;2023-04-27T12:36:15;101231.69;;;19.82;26.79
43770;BME280;6597;52.218;9.882;2023-04-27T12:38:42;101233.66;;;19.11;27.48
43770;BME280;6597;52.218;9.882;2023-04-27T12:41:08;101237.09;;;18.70;29.47
43770;BME280;6597;52.218;9.882;2023-04-27T12:43:35;101225.13;;;19.06;29.83
43770;BME280;6597;52.218;9.882;2023-04-27T12:46:03;101233.31;;;18.88;28.39
43770;BME280;6597;52.218;9.882;2023-04-27T12:48:30;101236.03;;;19.15;29.77
43770;BME280;6597;52.218;9.882;2023-04-27T12:50:57;101232.00;;;19.37;29.07
43770;BME280;6597;52.218;9.882;2023-04-27T12:53:24;101229.31;;;18.95;27.57
43770;BME280;6597;52.218;9.882;2023-04-27T12:55:50;101223.13;;;18.67;28.48
43770;BME280;6597;52.218;9.882;2023-04-27T12:58:17;101224.94;;;18.80;28.44
43770;BME280;6597;52.218;9.882;2023-04-27T13:00:44;101220.66;;;19.06;27.50
43770;BME280;6597;52.218;9.882;2023-04-27T13:03:12;101220.41;;;18.38;27.88
43770;BME280;6597;52.218;9.882;2023-04-27T13:05:38;101224.31;;;17.87;29.19
43770;BME280;6597;52.218;9.882;2023-04-27T13:08:06;101224.19;;;17.58;29.03